sensor_id;sensor_type;location;lat;lon;timestamp;P1;durP1;ratioP1;P2;durP2;ratioP2
27939;SDS011;15275;51.716;14.324;2023-04-23T00:02:11;9.10;;;5.53;;
27939;SDS011;15275;51.716;14.324;2023-04-23T00:04:40;8.77;;;5.55;;
27939;SDS011;15275;51.716;14.324;2023-04-23T00:07:20;8.20;;;5.30;;
27939;SDS011;15275;51.716;14.324;2023-04-23T00:09:46;9.43;;;5.35;;
27939;SDS011;15275;51.716;14.324;2023-04-23T00:12:14;11.18;;;5.45;;
27939;SDS011;15275;51.716;14.324;2023-04-23T00:14:41;8.85;;;5.28;;
27939;SDS011;15275;51.716;14.324;2023-04-23T00:17:07;8.63;;;5.65;;
27939;SDS011;15275;51.716;14.324;2023-04-23T00:19:33;12.77;;;6.05;;
27939;SDS011;15275;51.716;14.324;2023-04-23T00:21:58;9.98;;;5.75;;
27939;SDS011;15275;51.716;14.324;2023-04-23T00:24:24;7.82;;;4.78;;
27939;SDS011;15275;51.716;14.324;2023-04-23T00:26:50;13.88;;;6.00;;
27939;SDS011;15275;51.716;14.324;2023-04-23T00:29:17;12.48;;;5.63;;
27939;SDS011;15275;51.716;14.324;2023-04-23T00:31:43;9.35;;;5.18;;
27939;SDS011;15275;51.716;14.324;2023-04-23T00:34:09;7.28;;;5.10;;
27939;SDS011;15275;51.716;14.324;2023-04-23T00:36:35;8.80;;;5.47;;
27939;SDS011;15275;51.716;14.324;2023-04-23T00:39:00;8.93;;;5.10;;
27939;SDS011;15275;51.716;14.324;2023-04-23T00:41:26;8.82;;;4.82;;
27939;SDS011;15275;51.716;14.324;2023-04-23T00:43:52;9.20;;;5.25;;
27939;SDS011;15275;51.716;14.324;2023-04-23T00:46:21;7.55;;;5.00;;
27939;SDS011;15275;51.716;14.324;2023-04-23T00:48:48;7.25;;;4.68;;
27939;SDS011;15275;51.716;14.324;2023-04-23T00:51:15;10.95;;;5.43;;
27939;SDS011;15275;51.716;14.324;2023-04-23T00:53:41;9.52;;;5.32;;
27939;SDS011;15275;51.716;14.324;2023-04-23T00:56:07;6.68;;;4.95;;
27939;SDS011;15275;51.716;14.324;2023-04-23T00:58:34;10.50;;;5.43;;
27939;SDS011;15275;51.716;14.324;2023-04-23T01:01:00;7.68;;;4.82;;
27939;SDS011;15275;51.716;14.324;2023-04-23T01:03:28;9.52;;;5.55;;
27939;SDS011;15275;51.716;14.324;2023-04-23T01:05:56;7.53;;;5.18;;
27939;SDS011;15275;51.716;14.324;2023-04-23T01:08:22;8.65;;;5.18;;
27939;SDS011;15275;51.716;14.324;2023-04-23T01:10:50;8.05;;;4.85;;
27939;SDS011;15275;51.716;14.324;2023-04-23T01:13:17;13.18;;;5.75;;
27939;SDS011;15275;51.716;14.324;2023-04-23T01:15:43;7.78;;;4.40;;
27939;SDS011;15275;51.716;14.324;2023-04-23T01:18:10;8.43;;;4.95;;
27939;SDS011;15275;51.716;14.324;2023-04-23T01:20:37;8.18;;;5.20;;
27939;SDS011;15275;51.716;14.324;2023-04-23T01:23:03;7.00;;;4.50;;
27939;SDS011;15275;51.716;14.324;2023-04-23T01:25:29;7.40;;;4.35;;
27939;SDS011;15275;51.716;14.324;2023-04-23T01:27:56;6.95;;;4.65;;
27939;SDS011;15275;51.716;14.324;2023-04-23T01:30:23;6.80;;;4.47;;
27939;SDS011;15275;51.716;14.324;2023-04-23T01:32:51;5.53;;;3.85;;
27939;SDS011;15275;51.716;14.324;2023-04-23T01:35:21;8.75;;;4.60;;
27939;SDS011;15275;51.716;14.324;2023-04-23T01:37:48;7.53;;;4.13;;
27939;SDS011;15275;51.716;14.324;2023-04-23T01:40:16;6.00;;;4.22;;
27939;SDS011;15275;51.716;14.324;2023-04-23T01:42:44;10.23;;;4.82;;
27939;SDS011;15275;51.716;14.324;2023-04-23T01:45:09;5.90;;;4.07;;
27939;SDS011;15275;51.716;14.324;2023-04-23T01:47:35;6.20;;;4.55;;
27939;SDS011;15275;51.716;14.324;2023-04-23T01:50:01;5.95;;;4.35;;
27939;SDS011;15275;51.716;14.324;2023-04-23T01:52:29;6.15;;;4.50;;
27939;SDS011;15275;51.716;14.324;2023-04-23T01:54:55;7.63;;;4.32;;
27939;SDS011;15275;51.716;14.324;2023-04-23T01:57:20;8.40;;;4.25;;
27939;SDS011;15275;51.716;14.324;2023-04-23T01:59:50;7.95;;;4.28;;
27939;SDS011;15275;51.716;14.324;2023-04-23T02:02:19;7.03;;;4.18;;
27939;SDS011;15275;51.716;14.324;2023-04-23T02:04:45;10.45;;;4.47;;
27939;SDS011;15275;51.716;14.324;2023-04-23T02:07:14;7.93;;;4.00;;
27939;SDS011;15275;51.716;14.324;2023-04-23T02:09:39;11.20;;;4.72;;
27939;SDS011;15275;51.716;14.324;2023-04-23T02:12:05;8.75;;;4.20;;
27939;SDS011;15275;51.716;14.324;2023-04-23T02:14:31;11.07;;;4.15;;
27939;SDS011;15275;51.716;14.324;2023-04-23T02:16:57;6.35;;;4.07;;
27939;SDS011;15275;51.716;14.324;2023-04-23T02:19:23;8.38;;;4.32;;
27939;SDS011;15275;51.716;14.324;2023-04-23T02:21:49;8.73;;;4.80;;
27939;SDS011;15275;51.716;14.324;2023-04-23T02:24:14;7.35;;;4.45;;
27939;SDS011;15275;51.716;14.324;2023-04-23T02:26:40;6.28;;;4.68;;
27939;SDS011;15275;51.716;14.324;2023-04-23T02:29:06;5.95;;;4.03;;
27939;SDS011;15275;51.716;14.324;2023-04-23T02:31:32;6.22;;;4.03;;
27939;SDS011;15275;51.716;14.324;2023-04-23T02:33:58;6.78;;;4.88;;
27939;SDS011;15275;51.716;14.324;2023-04-23T02:36:24;7.65;;;4.57;;
27939;SDS011;15275;51.716;14.324;2023-04-23T02:38:52;5.70;;;4.30;;
27939;SDS011;15275;51.716;14.324;2023-04-23T02:41:18;6.25;;;4.38;;
27939;SDS011;15275;51.716;14.324;2023-04-23T02:43:44;9.25;;;4.60;;
27939;SDS011;15275;51.716;14.324;2023-04-23T02:46:10;7.75;;;4.50;;
27939;SDS011;15275;51.716;14.324;2023-04-23T02:48:36;8.98;;;4.32;;
27939;SDS011;15275;51.716;14.324;2023-04-23T02:51:06;9.77;;;4.55;;
27939;SDS011;15275;51.716;14.324;2023-04-23T02:53:35;9.30;;;4.03;;
27939;SDS011;15275;51.716;14.324;2023-04-23T02:56:01;7.13;;;4.38;;
27939;SDS011;15275;51.716;14.324;2023-04-23T02:58:27;5.68;;;3.88;;
27939;SDS011;15275;51.716;14.324;2023-04-23T03:00:53;7.90;;;4.03;;
27939;SDS011;15275;51.716;14.324;2023-04-23T03:03:19;10.25;;;5.07;;
27939;SDS011;15275;51.716;14.324;2023-04-23T03:05:45;10.30;;;4.50;;
27939;SDS011;15275;51.716;14.324;2023-04-23T03:08:11;9.13;;;4.22;;
27939;SDS011;15275;51.716;14.324;2023-04-23T03:10:37;5.57;;;4.10;;
27939;SDS011;15275;51.716;14.324;2023-04-23T03:13:03;8.27;;;4.47;;
27939;SDS011;15275;51.716;14.324;2023-04-23T03:15:29;11.30;;;4.20;;
27939;SDS011;15275;51.716;14.324;2023-04-23T03:17:55;8.60;;;4.53;;
27939;SDS011;15275;51.716;14.324;2023-04-23T03:20:21;9.20;;;4.45;;
27939;SDS011;15275;51.716;14.324;2023-04-23T03:22:47;7.90;;;3.95;;
27939;SDS011;15275;51.716;14.324;2023-04-23T03:25:13;6.50;;;4.55;;
27939;SDS011;15275;51.716;14.324;2023-04-23T03:27:38;8.77;;;4.43;;
27939;SDS011;15275;51.716;14.324;2023-04-23T03:30:05;8.07;;;4.28;;
27939;SDS011;15275;51.716;14.324;2023-04-23T03:32:33;7.20;;;4.32;;
27939;SDS011;15275;51.716;14.324;2023-04-23T03:35:00;8.70;;;4.28;;
27939;SDS011;15275;51.716;14.324;2023-04-23T03:37:26;8.48;;;4.18;;
27939;SDS011;15275;51.716;14.324;2023-04-23T03:39:52;7.22;;;4.32;;
27939;SDS011;15275;51.716;14.324;2023-04-23T03:42:18;7.22;;;4.22;;
27939;SDS011;15275;51.716;14.324;2023-04-23T03:44:43;8.65;;;4.95;;
27939;SDS011;15275;51.716;14.324;2023-04-23T03:47:10;8.15;;;4.40;;
27939;SDS011;15275;51.716;14.324;2023-04-23T03:49:35;9.13;;;4.47;;
27939;SDS011;15275;51.716;14.324;2023-04-23T03:52:02;9.25;;;4.68;;
27939;SDS011;15275;51.716;14.324;2023-04-23T03:54:28;8.05;;;4.45;;
27939;SDS011;15275;51.716;14.324;2023-04-23T03:56:54;8.82;;;4.57;;
27939;SDS011;15275;51.716;14.324;2023-04-23T03:59:21;7.78;;;4.78;;
27939;SDS011;15275;51.716;14.324;2023-04-23T04:01:47;9.82;;;4.72;;
27939;SDS011;15275;51.716;14.324;2023-04-23T04:04:13;5.88;;;3.97;;
27939;SDS011;15275;51.716;14.324;2023-04-23T04:06:39;8.77;;;4.38;;
27939;SDS011;15275;51.716;14.324;2023-04-23T04:09:05;9.57;;;4.53;;
27939;SDS011;15275;51.716;14.324;2023-04-23T04:11:32;6.82;;;4.60;;
27939;SDS011;15275;51.716;14.324;2023-04-23T04:13:58;11.38;;;5.03;;
27939;SDS011;15275;51.716;14.324;2023-04-23T04:16:24;10.93;;;4.40;;
27939;SDS011;15275;51.716;14.324;2023-04-23T04:18:50;6.82;;;4.20;;
27939;SDS011;15275;51.716;14.324;2023-04-23T04:21:16;8.30;;;4.32;;
27939;SDS011;15275;51.716;14.324;2023-04-23T04:23:43;7.35;;;4.28;;
27939;SDS011;15275;51.716;14.324;2023-04-23T04:26:09;10.18;;;4.72;;
27939;SDS011;15275;51.716;14.324;2023-04-23T04:28:35;8.43;;;4.25;;
27939;SDS011;15275;51.716;14.324;2023-04-23T04:31:04;8.30;;;4.88;;
27939;SDS011;15275;51.716;14.324;2023-04-23T04:33:32;7.97;;;4.15;;
27939;SDS011;15275;51.716;14.324;2023-04-23T04:35:59;8.25;;;4.50;;
27939;SDS011;15275;51.716;14.324;2023-04-23T04:38:26;6.60;;;4.15;;
27939;SDS011;15275;51.716;14.324;2023-04-23T04:40:55;7.50;;;4.20;;
27939;SDS011;15275;51.716;14.324;2023-04-23T04:43:26;6.15;;;4.45;;
27939;SDS011;15275;51.716;14.324;2023-04-23T04:45:52;9.60;;;4.47;;
27939;SDS011;15275;51.716;14.324;2023-04-23T04:48:17;8.18;;;4.55;;
27939;SDS011;15275;51.716;14.324;2023-04-23T04:50:44;10.30;;;4.28;;
27939;SDS011;15275;51.716;14.324;2023-04-23T04:53:10;7.28;;;4.72;;
27939;SDS011;15275;51.716;14.324;2023-04-23T04:55:36;10.25;;;4.47;;
27939;SDS011;15275;51.716;14.324;2023-04-23T04:58:02;6.65;;;4.25;;
27939;SDS011;15275;51.716;14.324;2023-04-23T05:00:28;7.07;;;3.92;;
27939;SDS011;15275;51.716;14.324;2023-04-23T05:02:55;10.25;;;4.47;;
27939;SDS011;15275;51.716;14.324;2023-04-23T05:05:22;7.82;;;4.22;;
27939;SDS011;15275;51.716;14.324;2023-04-23T05:07:50;10.07;;;4.68;;
27939;SDS011;15275;51.716;14.324;2023-04-23T05:10:18;9.75;;;5.20;;
27939;SDS011;15275;51.716;14.324;2023-04-23T05:12:44;7.82;;;4.70;;
27939;SDS011;15275;51.716;14.324;2023-04-23T05:15:11;5.70;;;4.50;;
27939;SDS011;15275;51.716;14.324;2023-04-23T05:17:38;8.05;;;4.50;;
27939;SDS011;15275;51.716;14.324;2023-04-23T05:20:05;9.43;;;4.38;;
27939;SDS011;15275;51.716;14.324;2023-04-23T05:22:35;6.93;;;4.22;;
27939;SDS011;15275;51.716;14.324;2023-04-23T05:25:08;9.00;;;4.33;;
27939;SDS011;15275;51.716;14.324;2023-04-23T05:27:36;5.38;;;4.20;;
27939;SDS011;15275;51.716;14.324;2023-04-23T05:30:03;8.40;;;4.28;;
27939;SDS011;15275;51.716;14.324;2023-04-23T05:32:33;7.95;;;5.05;;
27939;SDS011;15275;51.716;14.324;2023-04-23T05:35:00;6.22;;;3.92;;
27939;SDS011;15275;51.716;14.324;2023-04-23T05:37:27;10.77;;;4.32;;
27939;SDS011;15275;51.716;14.324;2023-04-23T05:39:54;5.90;;;4.40;;
27939;SDS011;15275;51.716;14.324;2023-04-23T05:42:22;6.72;;;4.10;;
27939;SDS011;15275;51.716;14.324;2023-04-23T05:44:48;10.02;;;4.35;;
27939;SDS011;15275;51.716;14.324;2023-04-23T05:47:14;8.23;;;4.70;;
27939;SDS011;15275;51.716;14.324;2023-04-23T05:49:40;6.18;;;4.25;;
27939;SDS011;15275;51.716;14.324;2023-04-23T05:52:06;5.00;;;4.22;;
27939;SDS011;15275;51.716;14.324;2023-04-23T05:54:31;5.40;;;3.95;;
27939;SDS011;15275;51.716;14.324;2023-04-23T05:56:58;8.35;;;4.18;;
27939;SDS011;15275;51.716;14.324;2023-04-23T05:59:23;6.95;;;4.22;;
27939;SDS011;15275;51.716;14.324;2023-04-23T06:01:49;8.18;;;4.65;;
27939;SDS011;15275;51.716;14.324;2023-04-23T06:04:15;7.55;;;4.28;;
27939;SDS011;15275;51.716;14.324;2023-04-23T06:06:41;5.43;;;3.72;;
27939;SDS011;15275;51.716;14.324;2023-04-23T06:09:07;7.82;;;4.93;;
27939;SDS011;15275;51.716;14.324;2023-04-23T06:11:33;8.75;;;4.65;;
27939;SDS011;15275;51.716;14.324;2023-04-23T06:14:00;7.90;;;4.03;;
27939;SDS011;15275;51.716;14.324;2023-04-23T06:16:27;5.45;;;3.95;;
27939;SDS011;15275;51.716;14.324;2023-04-23T06:18:53;4.90;;;4.13;;
27939;SDS011;15275;51.716;14.324;2023-04-23T06:21:21;8.00;;;4.15;;
27939;SDS011;15275;51.716;14.324;2023-04-23T06:23:48;7.53;;;4.90;;
27939;SDS011;15275;51.716;14.324;2023-04-23T06:26:14;6.35;;;4.55;;
27939;SDS011;15275;51.716;14.324;2023-04-23T06:28:41;9.73;;;4.20;;
27939;SDS011;15275;51.716;14.324;2023-04-23T06:31:08;6.60;;;4.00;;
27939;SDS011;15275;51.716;14.324;2023-04-23T06:33:34;7.70;;;4.38;;
27939;SDS011;15275;51.716;14.324;2023-04-23T06:36:01;8.90;;;4.63;;
27939;SDS011;15275;51.716;14.324;2023-04-23T06:38:28;7.38;;;3.67;;
27939;SDS011;15275;51.716;14.324;2023-04-23T06:40:54;7.30;;;4.22;;
27939;SDS011;15275;51.716;14.324;2023-04-23T06:43:20;6.93;;;4.53;;
27939;SDS011;15275;51.716;14.324;2023-04-23T06:45:46;6.30;;;4.00;;
27939;SDS011;15275;51.716;14.324;2023-04-23T06:48:12;9.18;;;4.40;;
27939;SDS011;15275;51.716;14.324;2023-04-23T06:50:38;11.48;;;4.38;;
27939;SDS011;15275;51.716;14.324;2023-04-23T06:53:04;6.00;;;4.28;;
27939;SDS011;15275;51.716;14.324;2023-04-23T06:55:30;6.22;;;4.40;;
27939;SDS011;15275;51.716;14.324;2023-04-23T06:57:56;6.30;;;4.68;;
27939;SDS011;15275;51.716;14.324;2023-04-23T07:00:22;11.18;;;3.92;;
27939;SDS011;15275;51.716;14.324;2023-04-23T07:02:48;9.95;;;4.93;;
27939;SDS011;15275;51.716;14.324;2023-04-23T07:05:15;6.60;;;4.45;;
27939;SDS011;15275;51.716;14.324;2023-04-23T07:07:42;6.53;;;4.78;;
27939;SDS011;15275;51.716;14.324;2023-04-23T07:10:08;11.35;;;4.70;;
27939;SDS011;15275;51.716;14.324;2023-04-23T07:12:36;7.03;;;4.20;;
27939;SDS011;15275;51.716;14.324;2023-04-23T07:15:03;9.15;;;4.47;;
27939;SDS011;15275;51.716;14.324;2023-04-23T07:17:30;6.57;;;4.25;;
27939;SDS011;15275;51.716;14.324;2023-04-23T07:19:57;9.95;;;4.45;;
27939;SDS011;15275;51.716;14.324;2023-04-23T07:22:23;6.93;;;4.35;;
27939;SDS011;15275;51.716;14.324;2023-04-23T07:24:50;9.43;;;4.53;;
27939;SDS011;15275;51.716;14.324;2023-04-23T07:27:16;6.13;;;4.32;;
27939;SDS011;15275;51.716;14.324;2023-04-23T07:29:43;6.80;;;4.30;;
27939;SDS011;15275;51.716;14.324;2023-04-23T07:32:08;4.75;;;3.92;;
27939;SDS011;15275;51.716;14.324;2023-04-23T07:34:34;5.70;;;3.90;;
27939;SDS011;15275;51.716;14.324;2023-04-23T07:37:01;8.38;;;3.95;;
27939;SDS011;15275;51.716;14.324;2023-04-23T07:39:27;5.28;;;4.20;;
27939;SDS011;15275;51.716;14.324;2023-04-23T07:41:53;6.85;;;4.60;;
27939;SDS011;15275;51.716;14.324;2023-04-23T07:44:20;5.97;;;4.22;;
27939;SDS011;15275;51.716;14.324;2023-04-23T07:46:46;5.10;;;4.22;;
27939;SDS011;15275;51.716;14.324;2023-04-23T07:49:12;5.35;;;3.92;;
27939;SDS011;15275;51.716;14.324;2023-04-23T07:51:38;5.20;;;3.40;;
27939;SDS011;15275;51.716;14.324;2023-04-23T07:54:04;6.40;;;4.07;;
27939;SDS011;15275;51.716;14.324;2023-04-23T07:56:30;6.63;;;3.70;;
27939;SDS011;15275;51.716;14.324;2023-04-23T07:58:56;4.90;;;3.83;;
27939;SDS011;15275;51.716;14.324;2023-04-23T08:01:23;4.68;;;3.72;;
27939;SDS011;15275;51.716;14.324;2023-04-23T08:03:50;8.10;;;3.72;;
27939;SDS011;15275;51.716;14.324;2023-04-23T08:06:15;5.45;;;4.32;;
27939;SDS011;15275;51.716;14.324;2023-04-23T08:08:42;5.03;;;3.78;;
27939;SDS011;15275;51.716;14.324;2023-04-23T08:11:09;5.00;;;3.35;;
27939;SDS011;15275;51.716;14.324;2023-04-23T08:13:35;4.97;;;3.40;;
27939;SDS011;15275;51.716;14.324;2023-04-23T08:16:01;5.25;;;3.67;;
27939;SDS011;15275;51.716;14.324;2023-04-23T08:18:27;7.35;;;4.05;;
27939;SDS011;15275;51.716;14.324;2023-04-23T08:20:53;5.05;;;3.92;;
27939;SDS011;15275;51.716;14.324;2023-04-23T08:23:20;5.78;;;3.75;;
27939;SDS011;15275;51.716;14.324;2023-04-23T08:25:46;6.35;;;3.85;;
27939;SDS011;15275;51.716;14.324;2023-04-23T08:28:12;6.00;;;4.28;;
27939;SDS011;15275;51.716;14.324;2023-04-23T08:30:37;6.07;;;4.00;;
27939;SDS011;15275;51.716;14.324;2023-04-23T08:33:03;8.85;;;4.07;;
27939;SDS011;15275;51.716;14.324;2023-04-23T08:35:29;4.90;;;3.90;;
27939;SDS011;15275;51.716;14.324;2023-04-23T08:37:55;4.50;;;3.63;;
27939;SDS011;15275;51.716;14.324;2023-04-23T08:40:21;5.32;;;3.75;;
27939;SDS011;15275;51.716;14.324;2023-04-23T08:45:25;4.22;;;3.10;;
27939;SDS011;15275;51.716;14.324;2023-04-23T08:47:55;4.57;;;3.40;;
27939;SDS011;15275;51.716;14.324;2023-04-23T08:50:23;8.90;;;3.33;;
27939;SDS011;15275;51.716;14.324;2023-04-23T08:52:54;5.10;;;3.53;;
27939;SDS011;15275;51.716;14.324;2023-04-23T08:55:21;6.18;;;3.55;;
27939;SDS011;15275;51.716;14.324;2023-04-23T08:57:48;6.63;;;3.95;;
27939;SDS011;15275;51.716;14.324;2023-04-23T09:00:19;4.50;;;3.20;;
27939;SDS011;15275;51.716;14.324;2023-04-23T09:02:47;5.05;;;3.20;;
27939;SDS011;15275;51.716;14.324;2023-04-23T09:05:14;4.72;;;2.80;;
27939;SDS011;15275;51.716;14.324;2023-04-23T09:07:40;4.28;;;2.80;;
27939;SDS011;15275;51.716;14.324;2023-04-23T09:10:07;6.10;;;2.92;;
27939;SDS011;15275;51.716;14.324;2023-04-23T09:12:36;3.95;;;2.40;;
27939;SDS011;15275;51.716;14.324;2023-04-23T09:15:05;4.93;;;2.67;;
27939;SDS011;15275;51.716;14.324;2023-04-23T09:17:35;4.78;;;2.38;;
27939;SDS011;15275;51.716;14.324;2023-04-23T09:20:10;3.60;;;2.33;;
27939;SDS011;15275;51.716;14.324;2023-04-23T09:22:48;3.50;;;2.25;;
27939;SDS011;15275;51.716;14.324;2023-04-23T09:25:19;2.80;;;2.15;;
27939;SDS011;15275;51.716;14.324;2023-04-23T09:27:51;4.10;;;2.45;;
27939;SDS011;15275;51.716;14.324;2023-04-23T09:30:17;5.57;;;2.42;;
27939;SDS011;15275;51.716;14.324;2023-04-23T09:32:44;4.25;;;2.33;;
27939;SDS011;15275;51.716;14.324;2023-04-23T09:35:11;3.38;;;2.33;;
27939;SDS011;15275;51.716;14.324;2023-04-23T09:37:40;2.92;;;2.63;;
27939;SDS011;15275;51.716;14.324;2023-04-23T09:40:09;3.40;;;2.15;;
27939;SDS011;15275;51.716;14.324;2023-04-23T09:42:38;4.82;;;2.83;;
27939;SDS011;15275;51.716;14.324;2023-04-23T09:45:05;4.85;;;2.50;;
27939;SDS011;15275;51.716;14.324;2023-04-23T09:47:39;2.85;;;2.35;;
27939;SDS011;15275;51.716;14.324;2023-04-23T09:50:13;3.67;;;2.42;;
27939;SDS011;15275;51.716;14.324;2023-04-23T09:52:39;3.63;;;2.42;;
27939;SDS011;15275;51.716;14.324;2023-04-23T09:55:06;3.33;;;2.58;;
27939;SDS011;15275;51.716;14.324;2023-04-23T09:57:50;2.80;;;2.20;;
27939;SDS011;15275;51.716;14.324;2023-04-23T10:00:18;3.88;;;2.80;;
27939;SDS011;15275;51.716;14.324;2023-04-23T10:02:49;3.78;;;2.20;;
27939;SDS011;15275;51.716;14.324;2023-04-23T10:05:20;6.70;;;2.05;;
27939;SDS011;15275;51.716;14.324;2023-04-23T10:07:47;3.30;;;2.30;;
27939;SDS011;15275;51.716;14.324;2023-04-23T10:10:13;4.38;;;2.25;;
27939;SDS011;15275;51.716;14.324;2023-04-23T10:12:41;3.80;;;2.50;;
27939;SDS011;15275;51.716;14.324;2023-04-23T10:15:08;5.20;;;3.17;;
27939;SDS011;15275;51.716;14.324;2023-04-23T10:17:36;3.00;;;2.17;;
27939;SDS011;15275;51.716;14.324;2023-04-23T10:20:02;3.97;;;2.60;;
27939;SDS011;15275;51.716;14.324;2023-04-23T10:22:32;3.05;;;2.47;;
27939;SDS011;15275;51.716;14.324;2023-04-23T10:24:59;2.53;;;2.20;;
27939;SDS011;15275;51.716;14.324;2023-04-23T10:27:33;2.53;;;2.13;;
27939;SDS011;15275;51.716;14.324;2023-04-23T10:30:04;2.80;;;2.08;;
27939;SDS011;15275;51.716;14.324;2023-04-23T10:32:32;5.53;;;2.95;;
27939;SDS011;15275;51.716;14.324;2023-04-23T10:34:58;2.80;;;2.50;;
27939;SDS011;15275;51.716;14.324;2023-04-23T10:37:24;6.25;;;2.45;;
27939;SDS011;15275;51.716;14.324;2023-04-23T10:39:55;3.05;;;2.50;;
27939;SDS011;15275;51.716;14.324;2023-04-23T10:42:33;4.55;;;3.20;;
27939;SDS011;15275;51.716;14.324;2023-04-23T10:44:59;3.85;;;2.53;;
27939;SDS011;15275;51.716;14.324;2023-04-23T10:47:25;5.57;;;3.20;;
27939;SDS011;15275;51.716;14.324;2023-04-23T10:49:51;3.05;;;2.33;;
27939;SDS011;15275;51.716;14.324;2023-04-23T10:52:17;5.38;;;2.72;;
27939;SDS011;15275;51.716;14.324;2023-04-23T10:54:48;2.40;;;2.10;;
27939;SDS011;15275;51.716;14.324;2023-04-23T10:57:23;4.30;;;1.92;;
27939;SDS011;15275;51.716;14.324;2023-04-23T10:59:53;3.10;;;2.10;;
27939;SDS011;15275;51.716;14.324;2023-04-23T11:02:22;2.60;;;1.60;;
27939;SDS011;15275;51.716;14.324;2023-04-23T11:04:53;2.08;;;1.70;;
27939;SDS011;15275;51.716;14.324;2023-04-23T11:07:24;3.40;;;1.70;;
27939;SDS011;15275;51.716;14.324;2023-04-23T11:09:55;1.60;;;1.50;;
27939;SDS011;15275;51.716;14.324;2023-04-23T11:14:51;1.70;;;1.60;;
27939;SDS011;15275;51.716;14.324;2023-04-23T11:22:52;4.28;;;1.90;;
27939;SDS011;15275;51.716;14.324;2023-04-23T11:25:19;2.78;;;2.08;;
27939;SDS011;15275;51.716;14.324;2023-04-23T11:27:52;5.78;;;2.22;;
27939;SDS011;15275;51.716;14.324;2023-04-23T11:30:24;2.75;;;2.15;;
27939;SDS011;15275;51.716;14.324;2023-04-23T11:32:54;4.25;;;2.30;;
27939;SDS011;15275;51.716;14.324;2023-04-23T11:35:22;3.20;;;2.10;;
27939;SDS011;15275;51.716;14.324;2023-04-23T11:37:53;3.80;;;2.60;;
27939;SDS011;15275;51.716;14.324;2023-04-23T11:40:20;3.05;;;2.30;;
27939;SDS011;15275;51.716;14.324;2023-04-23T11:42:47;2.75;;;2.40;;
27939;SDS011;15275;51.716;14.324;2023-04-23T11:45:19;2.72;;;2.25;;
27939;SDS011;15275;51.716;14.324;2023-04-23T11:47:48;6.18;;;2.08;;
27939;SDS011;15275;51.716;14.324;2023-04-23T11:50:20;2.10;;;1.52;;
27939;SDS011;15275;51.716;14.324;2023-04-23T11:52:57;2.17;;;1.20;;
27939;SDS011;15275;51.716;14.324;2023-04-23T11:55:35;1.95;;;1.38;;
27939;SDS011;15275;51.716;14.324;2023-04-23T11:58:02;1.40;;;1.30;;
27939;SDS011;15275;51.716;14.324;2023-04-23T12:00:28;1.25;;;1.13;;
27939;SDS011;15275;51.716;14.324;2023-04-23T12:02:58;0.98;;;0.90;;
27939;SDS011;15275;51.716;14.324;2023-04-23T12:05:30;0.88;;;0.88;;
27939;SDS011;15275;51.716;14.324;2023-04-23T12:08:13;1.25;;;1.00;;
27939;SDS011;15275;51.716;14.324;2023-04-23T12:10:42;1.05;;;0.95;;
27939;SDS011;15275;51.716;14.324;2023-04-23T12:13:20;0.80;;;0.80;;
27939;SDS011;15275;51.716;14.324;2023-04-23T12:15:47;2.30;;;1.10;;
27939;SDS011;15275;51.716;14.324;2023-04-23T12:18:32;1.55;;;1.15;;
27939;SDS011;15275;51.716;14.324;2023-04-23T12:21:07;1.27;;;0.85;;
27939;SDS011;15275;51.716;14.324;2023-04-23T12:23:38;0.90;;;0.80;;
27939;SDS011;15275;51.716;14.324;2023-04-23T12:26:09;1.42;;;1.00;;
27939;SDS011;15275;51.716;14.324;2023-04-23T12:28:49;1.20;;;0.80;;
27939;SDS011;15275;51.716;14.324;2023-04-23T12:31:27;2.78;;;0.80;;
27939;SDS011;15275;51.716;14.324;2023-04-23T12:34:12;1.55;;;0.90;;
27939;SDS011;15275;51.716;14.324;2023-04-23T12:36:46;2.63;;;0.80;;
27939;SDS011;15275;51.716;14.324;2023-04-23T12:39:18;0.70;;;0.70;;
27939;SDS011;15275;51.716;14.324;2023-04-23T12:41:53;0.65;;;0.65;;
27939;SDS011;15275;51.716;14.324;2023-04-23T12:44:29;0.68;;;0.65;;
27939;SDS011;15275;51.716;14.324;2023-04-23T12:46:58;0.60;;;0.55;;
27939;SDS011;15275;51.716;14.324;2023-04-23T12:49:27;0.75;;;0.75;;
27939;SDS011;15275;51.716;14.324;2023-04-23T12:51:54;0.45;;;0.45;;
27939;SDS011;15275;51.716;14.324;2023-04-23T12:54:24;0.73;;;0.52;;
27939;SDS011;15275;51.716;14.324;2023-04-23T12:56:58;0.60;;;0.50;;
27939;SDS011;15275;51.716;14.324;2023-04-23T12:59:28;0.73;;;0.70;;
27939;SDS011;15275;51.716;14.324;2023-04-23T13:01:55;0.75;;;0.68;;
27939;SDS011;15275;51.716;14.324;2023-04-23T13:04:21;0.60;;;0.50;;
27939;SDS011;15275;51.716;14.324;2023-04-23T13:06:47;0.50;;;0.50;;
27939;SDS011;15275;51.716;14.324;2023-04-23T13:09:15;0.50;;;0.50;;
27939;SDS011;15275;51.716;14.324;2023-04-23T13:11:41;0.85;;;0.70;;
27939;SDS011;15275;51.716;14.324;2023-04-23T13:14:07;0.50;;;0.50;;
27939;SDS011;15275;51.716;14.324;2023-04-23T13:16:33;0.43;;;0.43;;
27939;SDS011;15275;51.716;14.324;2023-04-23T13:19:00;0.40;;;0.40;;
27939;SDS011;15275;51.716;14.324;2023-04-23T13:21:26;0.30;;;0.30;;
27939;SDS011;15275;51.716;14.324;2023-04-23T13:23:52;0.60;;;0.50;;
27939;SDS011;15275;51.716;14.324;2023-04-23T13:26:18;0.45;;;0.45;;
27939;SDS011;15275;51.716;14.324;2023-04-23T13:28:44;0.40;;;0.40;;
27939;SDS011;15275;51.716;14.324;2023-04-23T13:31:10;0.57;;;0.50;;
27939;SDS011;15275;51.716;14.324;2023-04-23T13:33:37;0.60;;;0.50;;
27939;SDS011;15275;51.716;14.324;2023-04-23T13:36:03;0.52;;;0.47;;
27939;SDS011;15275;51.716;14.324;2023-04-23T13:38:29;2.33;;;0.73;;
27939;SDS011;15275;51.716;14.324;2023-04-23T13:40:55;0.57;;;0.52;;
27939;SDS011;15275;51.716;14.324;2023-04-23T13:43:21;1.25;;;0.70;;
27939;SDS011;15275;51.716;14.324;2023-04-23T13:45:47;1.02;;;0.52;;
27939;SDS011;15275;51.716;14.324;2023-04-23T13:48:13;1.58;;;1.27;;
27939;SDS011;15275;51.716;14.324;2023-04-23T13:50:40;0.95;;;0.85;;
27939;SDS011;15275;51.716;14.324;2023-04-23T13:53:08;0.85;;;0.68;;
27939;SDS011;15275;51.716;14.324;2023-04-23T13:55:35;0.85;;;0.75;;
27939;SDS011;15275;51.716;14.324;2023-04-23T13:58:05;0.75;;;0.70;;
27939;SDS011;15275;51.716;14.324;2023-04-23T14:00:31;0.80;;;0.80;;
27939;SDS011;15275;51.716;14.324;2023-04-23T14:02:57;0.70;;;0.70;;
27939;SDS011;15275;51.716;14.324;2023-04-23T14:05:23;0.90;;;0.80;;
27939;SDS011;15275;51.716;14.324;2023-04-23T14:07:49;0.95;;;0.73;;
27939;SDS011;15275;51.716;14.324;2023-04-23T14:10:15;1.52;;;0.90;;
27939;SDS011;15275;51.716;14.324;2023-04-23T14:12:41;0.80;;;0.80;;
27939;SDS011;15275;51.716;14.324;2023-04-23T14:15:09;1.80;;;1.33;;
27939;SDS011;15275;51.716;14.324;2023-04-23T14:17:35;1.20;;;1.00;;
27939;SDS011;15275;51.716;14.324;2023-04-23T14:20:03;0.90;;;0.77;;
27939;SDS011;15275;51.716;14.324;2023-04-23T14:22:30;0.95;;;0.70;;
27939;SDS011;15275;51.716;14.324;2023-04-23T14:25:00;0.80;;;0.80;;
27939;SDS011;15275;51.716;14.324;2023-04-23T14:27:33;2.58;;;0.70;;
27939;SDS011;15275;51.716;14.324;2023-04-23T14:30:04;4.47;;;2.60;;
27939;SDS011;15275;51.716;14.324;2023-04-23T14:32:38;1.88;;;1.20;;
27939;SDS011;15275;51.716;14.324;2023-04-23T14:35:04;0.70;;;0.70;;
27939;SDS011;15275;51.716;14.324;2023-04-23T14:37:30;1.05;;;0.95;;
27939;SDS011;15275;51.716;14.324;2023-04-23T14:39:56;1.08;;;0.98;;
27939;SDS011;15275;51.716;14.324;2023-04-23T14:42:22;0.80;;;0.80;;
27939;SDS011;15275;51.716;14.324;2023-04-23T14:44:48;1.30;;;1.05;;
27939;SDS011;15275;51.716;14.324;2023-04-23T14:47:14;0.80;;;0.80;;